Time;durP1;ratioP1;P1;durP2;ratioP2;P2;SDS_P1;SDS_P2;PMS_P1;PMS_P2;Temp;Humidity;BMP_temperature;BMP_pressure;BME280_temperature;BME280_humidity;BME280_pressure;Samples;Min_cycle;Max_cycle;Signal;HPM_P1;HPM_P2
2022/03/02 00:00:55;;;;;;;10.80;7.10;;;5.50;88.30;;;;;;5057179;28;20217;-77
2022/03/02 00:03:24;;;;;;;10.43;6.33;;;5.50;88.30;;;;;;5055038;28;20275;-77
2022/03/02 00:05:52;;;;;;;13.53;6.97;;;5.50;88.40;;;;;;5050657;28;20848;-77
2022/03/02 00:08:20;;;;;;;12.13;6.87;;;5.50;88.40;;;;;;5051787;28;20201;-77
2022/03/02 00:10:49;;;;;;;12.47;7.50;;;5.50;88.50;;;;;;5050177;28;20198;-77
2022/03/02 00:13:17;;;;;;;14.10;7.57;;;5.50;88.60;;;;;;5051627;28;20292;-77
2022/03/02 00:15:45;;;;;;;12.83;7.67;;;5.50;88.60;;;;;;5049475;28;20198;-76
2022/03/02 00:18:15;;;;;;;13.90;8.20;;;5.60;88.70;;;;;;5047344;28;20215;-76
2022/03/02 00:20:43;;;;;;;13.80;8.13;;;5.50;88.70;;;;;;5050966;28;20209;-78
2022/03/02 00:23:12;;;;;;;16.03;7.93;;;5.60;88.70;;;;;;5053376;28;20205;-78
2022/03/02 00:25:40;;;;;;;13.97;8.00;;;5.60;88.80;;;;;;5051444;28;20675;-78
2022/03/02 00:28:08;;;;;;;11.33;6.73;;;5.60;88.90;;;;;;5048137;28;20858;-78
2022/03/02 00:30:37;;;;;;;14.77;7.97;;;5.60;88.90;;;;;;5053741;28;20194;-77
2022/03/02 00:33:05;;;;;;;12.43;7.57;;;5.60;89.00;;;;;;5053735;28;20229;-78
2022/03/02 00:35:35;;;;;;;12.63;7.70;;;5.60;89.00;;;;;;5053155;28;20201;-78
2022/03/02 00:38:06;;;;;;;11.70;7.23;;;5.60;89.10;;;;;;5057088;28;20190;-78
2022/03/02 00:40:35;;;;;;;14.17;8.43;;;5.60;89.00;;;;;;5056415;28;20194;-78
2022/03/02 00:43:03;;;;;;;12.83;7.80;;;5.60;89.00;;;;;;5058020;28;20442;-77
2022/03/02 00:45:32;;;;;;;13.30;7.53;;;5.60;89.00;;;;;;5055842;28;20201;-78
2022/03/02 00:48:01;;;;;;;14.93;8.37;;;5.60;89.00;;;;;;5056167;28;20232;-78
2022/03/02 00:50:30;;;;;;;15.57;8.40;;;5.60;89.10;;;;;;5055618;28;20234;-77
2022/03/02 00:53:00;;;;;;;15.70;9.03;;;5.60;89.10;;;;;;5059751;28;20233;-77
2022/03/02 00:55:28;;;;;;;16.37;9.33;;;5.60;89.10;;;;;;5059931;28;20198;-78
2022/03/02 00:57:56;;;;;;;15.07;8.67;;;5.70;89.10;;;;;;5062631;28;20201;-78
2022/03/02 01:00:25;;;;;;;14.87;8.07;;;5.60;89.00;;;;;;5059004;28;20615;-78
2022/03/02 01:02:54;;;;;;;14.60;8.07;;;5.60;89.10;;;;;;5063197;28;20329;-78
2022/03/02 01:05:22;;;;;;;16.23;8.67;;;5.70;89.20;;;;;;5061408;28;20199;-77
2022/03/02 01:07:51;;;;;;;13.90;8.17;;;5.70;89.30;;;;;;5061146;28;20277;-78
2022/03/02 01:10:22;;;;;;;14.53;8.50;;;5.60;89.10;;;;;;5059574;28;20204;-77
2022/03/02 01:12:50;;;;;;;17.50;9.53;;;5.70;89.10;;;;;;5059721;28;20260;-80
2022/03/02 01:15:19;;;;;;;14.00;8.13;;;5.70;89.10;;;;;;5058049;28;20206;-78
2022/03/02 01:17:47;;;;;;;17.53;8.83;;;5.70;89.10;;;;;;5058265;28;20197;-78
2022/03/02 01:20:16;;;;;;;15.67;8.80;;;5.70;89.10;;;;;;5056688;28;20202;-77
2022/03/02 01:22:44;;;;;;;16.37;9.30;;;5.70;89.10;;;;;;5061374;28;20237;-78
2022/03/02 01:25:13;;;;;;;16.07;8.73;;;5.80;89.10;;;;;;5057958;28;20190;-77
2022/03/02 01:27:43;;;;;;;16.73;9.83;;;5.80;89.10;;;;;;5060824;28;20212;-77
2022/03/02 01:30:11;;;;;;;19.63;10.33;;;5.80;89.10;;;;;;5061721;28;20206;-79
2022/03/02 01:32:39;;;;;;;17.23;8.53;;;5.80;89.00;;;;;;5066756;28;20270;-77
2022/03/02 01:35:11;;;;;;;16.10;9.10;;;5.90;89.10;;;;;;5068995;28;20224;-79
2022/03/02 01:37:43;;;;;;;14.93;9.10;;;5.90;89.00;;;;;;5074608;28;20222;-79
2022/03/02 01:40:11;;;;;;;17.37;9.10;;;5.90;89.00;;;;;;5076133;28;20299;-80
2022/03/02 01:42:43;;;;;;;16.50;9.27;;;5.90;88.90;;;;;;5078566;28;20223;-80
2022/03/02 01:45:13;;;;;;;17.27;9.87;;;5.90;88.90;;;;;;5064251;28;20276;-78
2022/03/02 01:47:42;;;;;;;13.63;8.83;;;6.00;88.80;;;;;;5053754;28;20247;-78
2022/03/02 01:50:13;;;;;;;19.43;10.07;;;6.00;88.80;;;;;;5054590;28;20583;-80
2022/03/02 01:52:42;;;;;;;17.40;9.37;;;6.00;88.80;;;;;;5053011;28;20200;-79
2022/03/02 01:55:11;;;;;;;17.23;9.43;;;6.00;88.70;;;;;;5052392;28;20270;-80
2022/03/02 01:57:43;;;;;;;16.70;8.97;;;6.00;88.70;;;;;;5050928;28;20203;-79
2022/03/02 02:00:14;;;;;;;21.10;11.00;;;6.00;88.70;;;;;;5053838;28;20205;-78
2022/03/02 02:02:43;;;;;;;21.17;10.20;;;6.10;88.70;;;;;;5051028;28;20221;-79
2022/03/02 02:05:12;;;;;;;20.63;10.43;;;6.10;88.70;;;;;;5052481;28;20210;-77
2022/03/02 02:07:42;;;;;;;19.47;10.47;;;6.10;88.60;;;;;;5053351;28;20198;-80
2022/03/02 02:10:11;;;;;;;18.83;10.00;;;6.10;88.60;;;;;;5053080;28;20486;-78
2022/03/02 02:12:40;;;;;;;19.40;10.50;;;6.10;88.40;;;;;;5050862;28;20199;-80
2022/03/02 02:15:11;;;;;;;18.27;10.33;;;6.10;88.40;;;;;;5051139;28;20206;-80
2022/03/02 02:17:40;;;;;;;19.77;10.93;;;6.10;88.40;;;;;;5054156;28;20202;-79
2022/03/02 02:20:11;;;;;;;18.43;9.83;;;6.10;88.40;;;;;;5051826;28;20198;-85
2022/03/02 02:22:42;;;;;;;21.30;11.00;;;6.10;88.30;;;;;;5053123;28;20209;-80
2022/03/02 02:25:11;;;;;;;17.50;10.37;;;6.10;88.20;;;;;;5052456;28;20654;-79
2022/03/02 02:27:40;;;;;;;19.37;10.23;;;6.10;88.30;;;;;;5052361;28;20202;-80
2022/03/02 02:30:09;;;;;;;16.90;10.03;;;6.10;88.30;;;;;;5049998;28;20214;-82
2022/03/02 02:32:38;;;;;;;17.03;9.77;;;6.10;88.20;;;;;;5050101;28;20197;-81
2022/03/02 02:35:08;;;;;;;20.90;10.57;;;6.10;88.30;;;;;;5050046;28;20206;-79
2022/03/02 02:37:38;;;;;;;18.43;10.53;;;6.10;88.40;;;;;;5053040;28;20289;-81
2022/03/02 02:40:09;;;;;;;16.43;9.10;;;6.10;88.40;;;;;;5050730;28;20646;-77
2022/03/02 02:42:39;;;;;;;16.50;10.30;;;6.00;88.40;;;;;;5053840;28;20956;-81
2022/03/02 02:45:08;;;;;;;15.97;9.37;;;6.00;88.40;;;;;;5051805;28;20291;-80
2022/03/02 02:47:36;;;;;;;17.93;9.63;;;6.00;88.60;;;;;;5054359;28;20201;-80
2022/03/02 02:50:18;;;;;;;17.47;9.30;;;6.00;88.70;;;;;;5051333;28;20912;-80
2022/03/02 02:52:47;;;;;;;16.53;9.60;;;5.90;88.70;;;;;;5052858;28;20878;-79
2022/03/02 02:55:17;;;;;;;18.57;9.40;;;5.90;88.70;;;;;;5047273;28;20194;-80
2022/03/02 02:57:45;;;;;;;15.97;9.00;;;5.90;88.80;;;;;;5051205;28;20198;-79
2022/03/02 03:00:16;;;;;;;15.80;9.20;;;5.90;89.00;;;;;;5052182;28;20897;-80
2022/03/02 03:02:46;;;;;;;16.50;9.20;;;5.90;89.10;;;;;;5051469;28;20206;-78
2022/03/02 03:05:18;;;;;;;16.93;8.93;;;5.90;89.00;;;;;;5049205;28;20282;-81
2022/03/02 03:07:46;;;;;;;16.30;8.80;;;5.90;89.10;;;;;;5051694;28;20931;-81
2022/03/02 03:10:18;;;;;;;16.37;9.03;;;5.90;89.10;;;;;;5047284;28;20263;-77
2022/03/02 03:12:47;;;;;;;16.10;8.00;;;5.90;89.10;;;;;;5050555;28;20218;-76
2022/03/02 03:15:18;;;;;;;15.43;8.73;;;5.90;89.10;;;;;;5049410;28;20931;-75
2022/03/02 03:17:47;;;;;;;16.97;8.60;;;5.90;89.00;;;;;;5047222;28;20871;-76
2022/03/02 03:20:18;;;;;;;14.43;8.47;;;5.90;89.10;;;;;;5052050;28;20198;-76
2022/03/02 03:22:47;;;;;;;13.90;8.00;;;5.90;89.00;;;;;;5052110;28;20214;-76
2022/03/02 03:25:17;;;;;;;13.37;7.80;;;5.90;89.00;;;;;;5048209;28;20857;-76
2022/03/02 03:27:47;;;;;;;14.23;7.70;;;5.90;88.90;;;;;;5053138;28;20206;-76
2022/03/02 03:30:19;;;;;;;18.20;9.20;;;5.90;88.80;;;;;;5050571;28;20836;-75
2022/03/02 03:32:48;;;;;;;16.87;9.23;;;5.90;88.80;;;;;;5052502;28;20193;-75
2022/03/02 03:35:17;;;;;;;15.10;8.67;;;5.90;88.90;;;;;;5050502;28;20266;-75
2022/03/02 03:37:46;;;;;;;16.53;7.57;;;5.90;88.80;;;;;;5052494;28;20240;-76
2022/03/02 03:40:17;;;;;;;14.47;8.13;;;6.00;88.80;;;;;;5051539;28;20719;-76
2022/03/02 03:42:46;;;;;;;15.30;8.40;;;6.00;88.80;;;;;;5051428;28;20384;-75
2022/03/02 03:45:15;;;;;;;17.00;8.90;;;6.00;88.70;;;;;;5050162;28;20202;-76
2022/03/02 03:47:44;;;;;;;14.43;8.30;;;6.00;88.70;;;;;;5047331;28;20213;-75
2022/03/02 03:50:13;;;;;;;15.03;9.07;;;6.00;88.60;;;;;;5049819;28;20225;-75
2022/03/02 03:52:42;;;;;;;15.87;8.40;;;6.00;88.70;;;;;;5051472;28;20198;-75
2022/03/02 03:55:12;;;;;;;16.50;9.73;;;6.00;88.60;;;;;;5050625;28;20575;-75
2022/03/02 03:57:43;;;;;;;15.88;9.55;;;6.00;88.50;;;;;;5047796;28;20466;-76
2022/03/02 04:00:14;;;;;;;14.93;8.60;;;6.00;89.00;;;;;;5049486;28;20194;-76
2022/03/02 04:02:43;;;;;;;16.90;9.10;;;6.00;88.90;;;;;;5051062;28;20272;-76
2022/03/02 04:05:12;;;;;;;15.97;8.53;;;6.00;88.70;;;;;;5047462;28;20845;-75
2022/03/02 04:07:45;;;;;;;17.73;9.23;;;6.00;88.70;;;;;;5052142;28;20217;-74
2022/03/02 04:10:14;;;;;;;12.93;8.03;;;6.00;88.60;;;;;;5046841;28;20213;-75
2022/03/02 04:12:45;;;;;;;17.27;9.23;;;6.00;88.50;;;;;;5051961;28;20202;-76
2022/03/02 04:15:13;;;;;;;18.07;9.77;;;6.00;88.40;;;;;;5049686;28;20199;-76
2022/03/02 04:17:42;;;;;;;17.57;10.10;;;6.00;88.40;;;;;;5051973;28;20318;-75
2022/03/02 04:20:11;;;;;;;16.70;9.63;;;6.00;88.40;;;;;;5051344;28;20209;-76
2022/03/02 04:22:40;;;;;;;16.93;9.03;;;6.00;88.30;;;;;;5051119;28;20202;-76
2022/03/02 04:25:10;;;;;;;15.33;8.80;;;6.00;88.20;;;;;;5052473;28;20202;-76
2022/03/02 04:27:38;;;;;;;15.57;8.10;;;6.00;88.10;;;;;;5048031;28;20216;-75
2022/03/02 04:30:10;;;;;;;14.73;8.53;;;6.00;88.10;;;;;;5051847;28;20201;-76
2022/03/02 04:32:38;;;;;;;19.77;8.60;;;6.00;88.00;;;;;;5054634;28;20205;-75
2022/03/02 04:35:09;;;;;;;15.43;8.47;;;6.00;88.00;;;;;;5054481;28;20225;-75
2022/03/02 04:37:38;;;;;;;15.23;8.00;;;6.00;88.00;;;;;;5055170;28;20205;-75
2022/03/02 04:40:09;;;;;;;15.53;8.27;;;6.00;87.90;;;;;;5055432;28;20199;-75
2022/03/02 04:42:37;;;;;;;17.43;8.77;;;6.10;88.00;;;;;;5054597;28;20202;-75
2022/03/02 04:45:08;;;;;;;17.03;9.17;;;6.00;87.80;;;;;;5055893;28;20232;-76
2022/03/02 04:47:36;;;;;;;17.83;9.40;;;6.10;87.90;;;;;;5054009;28;20185;-75
2022/03/02 04:50:05;;;;;;;17.00;9.67;;;6.10;87.90;;;;;;5054978;28;20249;-75
2022/03/02 04:52:33;;;;;;;19.00;10.00;;;6.10;87.80;;;;;;5050737;28;20262;-75
2022/03/02 04:55:09;;;;;;;16.63;9.63;;;6.10;87.90;;;;;;5053372;28;20217;-75
2022/03/02 04:57:39;;;;;;;20.47;9.97;;;6.10;87.90;;;;;;5053133;28;20189;-75
2022/03/02 05:00:12;;;;;;;22.17;10.43;;;6.10;87.80;;;;;;5053603;28;20209;-76
2022/03/02 05:02:41;;;;;;;19.83;11.33;;;6.10;87.80;;;;;;5055794;28;20252;-76
2022/03/02 05:05:11;;;;;;;22.73;10.73;;;6.10;87.90;;;;;;5053103;28;20311;-75
2022/03/02 05:07:41;;;;;;;19.33;10.23;;;6.10;87.80;;;;;;5054959;28;20209;-76
2022/03/02 05:10:11;;;;;;;20.40;11.33;;;6.10;88.00;;;;;;5056762;28;20216;-76
2022/03/02 05:12:40;;;;;;;20.77;10.90;;;6.10;87.90;;;;;;5055262;28;20201;-76
2022/03/02 05:15:12;;;;;;;20.43;10.63;;;6.10;87.90;;;;;;5055201;28;20201;-75
2022/03/02 05:17:41;;;;;;;21.20;10.73;;;6.10;88.70;;;;;;5054626;28;20194;-76
2022/03/02 05:20:12;;;;;;;22.73;10.43;;;6.10;88.00;;;;;;5056012;28;20201;-76
2022/03/02 05:22:40;;;;;;;19.67;11.23;;;6.20;87.90;;;;;;5055817;28;20194;-76
2022/03/02 05:25:10;;;;;;;20.92;11.98;;;6.10;87.90;;;;;;5051791;28;20948;-76
2022/03/02 05:27:38;;;;;;;19.57;10.43;;;6.10;88.30;;;;;;5055156;28;20195;-76
2022/03/02 05:30:10;;;;;;;21.80;10.73;;;6.20;88.30;;;;;;5056157;28;20232;-76
2022/03/02 05:32:39;;;;;;;17.87;10.20;;;6.20;88.20;;;;;;5054737;28;20980;-77
2022/03/02 05:35:08;;;;;;;19.90;10.67;;;6.20;88.10;;;;;;5055567;28;20675;-77
2022/03/02 05:37:42;;;;;;;18.47;11.20;;;6.30;88.10;;;;;;5054197;28;20621;-75
2022/03/02 05:40:13;;;;;;;20.70;11.60;;;6.30;88.70;;;;;;5055168;28;20193;-76
2022/03/02 05:42:41;;;;;;;22.70;12.60;;;6.30;87.70;;;;;;5056227;28;20191;-76
2022/03/02 05:45:12;;;;;;;19.73;10.40;;;6.30;87.70;;;;;;5055593;28;20221;-76
2022/03/02 05:47:41;;;;;;;25.67;12.37;;;6.40;87.70;;;;;;5055356;28;20220;-76
2022/03/02 05:50:10;;;;;;;24.47;12.50;;;6.40;87.70;;;;;;5052927;28;20226;-78
2022/03/02 05:52:39;;;;;;;25.17;12.67;;;6.40;87.70;;;;;;5052020;28;20197;-78
2022/03/02 05:55:09;;;;;;;22.23;13.10;;;6.50;87.60;;;;;;5055118;28;20201;-77
2022/03/02 05:57:38;;;;;;;22.60;12.53;;;6.50;88.30;;;;;;5053194;28;20220;-77
2022/03/02 06:00:07;;;;;;;24.43;12.90;;;6.50;87.50;;;;;;5053052;28;20195;-77
2022/03/02 06:02:38;;;;;;;23.53;13.13;;;6.60;87.50;;;;;;5066247;28;20225;-78
2022/03/02 06:05:09;;;;;;;22.93;11.73;;;6.60;87.30;;;;;;5054208;28;20275;-78
2022/03/02 06:07:37;;;;;;;25.80;13.53;;;6.60;87.20;;;;;;5050687;28;20204;-77
2022/03/02 06:10:07;;;;;;;23.40;12.47;;;6.60;87.10;;;;;;5056096;28;20279;-77
2022/03/02 06:12:35;;;;;;;25.30;12.50;;;6.60;87.00;;;;;;5052894;28;20827;-78
2022/03/02 06:15:05;;;;;;;20.80;12.17;;;6.60;86.90;;;;;;5051867;28;20198;-77
2022/03/02 06:17:34;;;;;;;24.10;13.20;;;6.60;86.80;;;;;;5053154;28;20202;-76
2022/03/02 06:20:04;;;;;;;21.83;12.03;;;6.70;86.90;;;;;;5054827;28;20867;-77
2022/03/02 06:22:35;;;;;;;25.73;13.27;;;6.70;86.90;;;;;;5054575;28;20276;-77
2022/03/02 06:25:05;;;;;;;23.07;11.93;;;6.70;86.70;;;;;;5053991;28;20653;-77
2022/03/02 06:27:34;;;;;;;21.93;12.10;;;6.80;86.60;;;;;;5052260;28;20191;-77
2022/03/02 06:30:02;;;;;;;27.83;12.97;;;6.80;86.50;;;;;;5053918;28;20600;-76
2022/03/02 06:32:31;;;;;;;26.73;14.25;;;6.80;86.60;;;;;;5053594;28;20447;-76
2022/03/02 06:35:00;;;;;;;26.53;13.03;;;6.80;86.70;;;;;;5049140;28;22935;-76
2022/03/02 06:37:33;;;;;;;25.13;13.43;;;6.90;86.70;;;;;;5041004;28;20311;-75
2022/03/02 06:40:03;;;;;;;21.97;12.07;;;7.00;86.70;;;;;;5053016;28;20198;-76
2022/03/02 06:42:57;;;;;;;20.50;11.90;;;7.00;86.20;;;;;;5053621;28;20194;-75
2022/03/02 06:45:29;;;;;;;20.40;11.93;;;7.00;86.00;;;;;;5053359;28;20898;-77
2022/03/02 06:48:03;;;;;;;20.07;11.50;;;7.10;85.80;;;;;;5053200;28;20198;-77
2022/03/02 06:50:36;;;;;;;22.97;12.50;;;7.10;85.50;;;;;;5052610;28;20237;-76
2022/03/02 06:53:11;;;;;;;20.60;11.07;;;7.10;85.40;;;;;;5049921;28;20206;-76
2022/03/02 06:55:45;;;;;;;20.47;11.13;;;7.20;85.20;;;;;;5051037;28;20847;-76
2022/03/02 06:58:14;;;;;;;20.77;11.97;;;7.20;85.00;;;;;;5048820;28;20693;-77
2022/03/02 07:00:52;;;;;;;23.80;12.30;;;7.20;85.20;;;;;;5043210;28;21002;-77
2022/03/02 07:03:23;;;;;;;23.83;12.10;;;7.20;85.00;;;;;;5049122;28;20205;-77
2022/03/02 07:05:54;;;;;;;18.20;11.97;;;7.30;85.20;;;;;;5048358;28;20215;-76
2022/03/02 07:08:26;;;;;;;21.93;12.63;;;7.40;85.10;;;;;;5049558;28;20199;-77
2022/03/02 07:10:54;;;;;;;19.93;11.30;;;7.30;85.20;;;;;;5049766;28;20194;-77
2022/03/02 07:13:24;;;;;;;20.93;12.00;;;7.40;84.60;;;;;;5049432;28;20859;-77
2022/03/02 07:15:52;;;;;;;20.83;12.03;;;7.50;84.70;;;;;;5046921;28;20205;-78
2022/03/02 07:18:21;;;;;;;22.10;11.60;;;7.50;84.30;;;;;;5046560;28;20200;-77
2022/03/02 07:20:55;;;;;;;21.33;12.07;;;7.50;84.10;;;;;;5049472;28;20205;-77
2022/03/02 07:23:30;;;;;;;25.00;13.82;;;7.50;84.10;;;;;;5049968;28;20451;-78
2022/03/02 07:26:03;;;;;;;20.33;11.47;;;7.60;84.40;;;;;;5049696;28;20215;-77
2022/03/02 07:28:34;;;;;;;21.77;12.40;;;7.60;83.60;;;;;;5049628;28;20196;-78
2022/03/02 07:31:02;;;;;;;23.13;12.47;;;7.60;83.50;;;;;;5049128;28;20204;-78
2022/03/02 07:33:33;;;;;;;22.17;12.43;;;7.60;83.50;;;;;;5052147;28;20219;-79
2022/03/02 07:36:01;;;;;;;23.67;14.52;;;7.70;83.60;;;;;;5046413;28;20439;-78
2022/03/02 07:38:32;;;;;;;24.47;12.93;;;7.70;83.90;;;;;;5048269;28;20620;-77
2022/03/02 07:41:00;;;;;;;23.30;13.60;;;7.70;83.80;;;;;;5046839;28;20197;-77
2022/03/02 07:43:30;;;;;;;23.93;13.40;;;7.70;83.70;;;;;;5052118;28;20197;-76
2022/03/02 07:45:58;;;;;;;29.63;13.27;;;7.80;83.40;;;;;;5048357;28;20247;-75
2022/03/02 07:48:29;;;;;;;22.83;13.50;;;7.90;83.40;;;;;;5050904;28;20850;-77
2022/03/02 07:50:58;;;;;;;23.23;13.73;;;8.00;83.60;;;;;;5050828;28;20812;-77
2022/03/02 07:53:32;;;;;;;22.80;13.23;;;8.10;83.30;;;;;;5050249;28;20202;-78
2022/03/02 07:56:04;;;;;;;24.43;13.03;;;8.20;83.00;;;;;;5050119;28;20207;-76
2022/03/02 07:58:32;;;;;;;21.70;12.10;;;8.30;82.60;;;;;;5050696;28;20195;-78
2022/03/02 08:01:03;;;;;;;20.60;12.63;;;8.30;82.20;;;;;;5048614;28;20859;-77
2022/03/02 08:03:38;;;;;;;18.83;11.70;;;8.40;82.50;;;;;;5054098;28;20240;-77
2022/03/02 08:06:08;;;;;;;20.77;12.80;;;8.50;82.20;;;;;;5056954;28;20212;-77
2022/03/02 08:08:38;;;;;;;20.87;12.53;;;8.60;82.10;;;;;;5055275;28;20205;-77
2022/03/02 08:11:07;;;;;;;23.70;13.10;;;8.60;81.30;;;;;;5053111;28;20562;-77
2022/03/02 08:13:37;;;;;;;23.37;13.13;;;8.70;81.30;;;;;;5053892;28;20209;-77
2022/03/02 08:16:05;;;;;;;20.20;11.43;;;8.70;81.10;;;;;;5051043;28;20275;-77
2022/03/02 08:18:35;;;;;;;19.67;11.30;;;8.80;80.90;;;;;;5051390;28;20213;-77
2022/03/02 08:21:04;;;;;;;23.20;12.67;;;8.80;80.60;;;;;;5056082;28;20209;-79
2022/03/02 08:23:41;;;;;;;20.80;12.57;;;8.90;79.80;;;;;;5054215;28;20198;-78
2022/03/02 08:26:11;;;;;;;23.53;12.27;;;9.00;80.20;;;;;;5052309;28;20229;-78
2022/03/02 08:28:44;;;;;;;22.20;11.90;;;9.10;80.40;;;;;;5051674;28;20715;-77
2022/03/02 08:31:13;;;;;;;21.97;12.93;;;9.30;80.50;;;;;;5052979;28;20202;-77
2022/03/02 08:33:42;;;;;;;23.90;12.80;;;9.30;79.70;;;;;;5053449;28;20213;-76
2022/03/02 08:36:12;;;;;;;21.73;13.40;;;9.40;79.60;;;;;;5055046;28;20201;-77
2022/03/02 08:38:44;;;;;;;22.13;12.13;;;9.50;79.80;;;;;;5052641;28;20583;-77
2022/03/02 08:41:12;;;;;;;23.33;13.47;;;9.60;79.90;;;;;;5054731;28;20190;-78
2022/03/02 08:43:40;;;;;;;25.27;13.63;;;9.70;80.10;;;;;;5052364;28;20202;-77
2022/03/02 08:46:09;;;;;;;23.10;13.77;;;9.80;79.60;;;;;;5053387;28;20783;-78
2022/03/02 08:48:37;;;;;;;21.47;13.23;;;9.80;79.40;;;;;;5051126;28;20255;-77
2022/03/02 08:51:06;;;;;;;21.60;13.60;;;9.80;79.20;;;;;;5052940;28;20245;-77
2022/03/02 08:53:34;;;;;;;23.77;13.63;;;9.90;79.10;;;;;;5055688;28;20333;-77
2022/03/02 08:56:06;;;;;;;23.03;12.70;;;9.90;79.30;;;;;;5051497;28;20958;-77
2022/03/02 08:58:37;;;;;;;27.20;13.77;;;9.90;78.90;;;;;;5054232;28;20880;-79
2022/03/02 09:01:05;;;;;;;25.53;14.37;;;10.00;78.80;;;;;;5050978;28;20203;-79
2022/03/02 09:03:35;;;;;;;24.20;13.33;;;10.00;78.70;;;;;;5036707;28;20289;-79
2022/03/02 09:06:04;;;;;;;22.80;13.00;;;10.00;78.50;;;;;;5052580;28;20300;-79
2022/03/02 09:08:39;;;;;;;23.03;13.40;;;10.00;78.40;;;;;;5052076;28;20563;-79
2022/03/02 09:11:10;;;;;;;22.03;12.57;;;10.10;78.40;;;;;;5053329;28;20224;-79
2022/03/02 09:13:39;;;;;;;23.37;13.67;;;10.10;78.30;;;;;;5055760;28;20207;-81
2022/03/02 09:16:10;;;;;;;35.20;14.33;;;10.10;78.20;;;;;;5052862;28;21458;-78
2022/03/02 09:18:38;;;;;;;23.00;12.70;;;10.10;78.50;;;;;;5052121;28;20245;-78
2022/03/02 09:21:08;;;;;;;21.10;12.37;;;10.20;77.90;;;;;;5053518;28;20209;-79
2022/03/02 09:23:40;;;;;;;24.13;12.87;;;10.20;77.60;;;;;;5052658;28;20199;-78
2022/03/02 09:26:13;;;;;;;20.83;12.00;;;10.20;77.90;;;;;;5054770;28;20230;-78
2022/03/02 09:28:43;;;;;;;22.10;12.47;;;10.30;78.00;;;;;;5054027;28;20648;-77
2022/03/02 09:31:14;;;;;;;21.13;12.93;;;10.30;77.30;;;;;;5048249;28;20207;-77
2022/03/02 09:33:47;;;;;;;22.10;12.60;;;10.40;77.40;;;;;;5049934;28;21150;-77
2022/03/02 09:36:21;;;;;;;22.37;11.70;;;10.50;77.70;;;;;;5052284;28;20195;-77
2022/03/02 09:38:51;;;;;;;22.00;11.70;;;10.50;76.30;;;;;;5051697;28;20332;-78
2022/03/02 09:41:29;;;;;;;21.20;11.00;;;10.60;76.40;;;;;;5049545;28;20198;-78
2022/03/02 09:43:59;;;;;;;20.17;11.47;;;10.70;76.90;;;;;;5053591;28;20202;-77
2022/03/02 09:46:35;;;;;;;20.67;11.20;;;10.80;76.40;;;;;;5054517;28;20213;-77
2022/03/02 09:49:06;;;;;;;18.27;10.90;;;10.90;76.80;;;;;;5054052;28;20194;-77
2022/03/02 09:51:36;;;;;;;16.23;9.80;;;11.00;76.30;;;;;;5051694;28;20227;-76
2022/03/02 09:54:09;;;;;;;17.70;9.37;;;11.00;76.20;;;;;;5053998;28;20202;-77
2022/03/02 09:56:39;;;;;;;16.77;10.33;;;11.10;74.60;;;;;;5054908;28;20217;-77
2022/03/02 09:59:09;;;;;;;17.30;9.33;;;11.10;73.10;;;;;;5055438;28;20198;-78
2022/03/02 10:01:41;;;;;;;14.40;9.03;;;11.00;73.20;;;;;;5051807;28;20214;-78
2022/03/02 10:04:17;;;;;;;13.80;8.23;;;11.00;73.00;;;;;;5051628;28;20194;-78
2022/03/02 10:06:46;;;;;;;13.70;7.87;;;11.00;72.80;;;;;;5052651;28;20315;-78
2022/03/02 10:09:14;;;;;;;12.90;7.30;;;11.00;73.00;;;;;;5055098;28;20198;-78
2022/03/02 10:11:44;;;;;;;12.03;7.00;;;11.10;71.60;;;;;;5055183;28;20198;-77
2022/03/02 10:14:13;;;;;;;10.90;7.00;;;11.10;72.00;;;;;;5055564;28;20613;-79
2022/03/02 10:16:45;;;;;;;12.73;6.60;;;11.20;71.30;;;;;;5055401;28;20194;-78
2022/03/02 10:19:36;;;;;;;10.37;5.93;;;11.20;71.20;;;;;;5053215;28;20244;-77
2022/03/02 10:22:14;;;;;;;14.67;6.47;;;11.30;70.60;;;;;;5053624;28;20195;-78
2022/03/02 10:24:46;;;;;;;10.07;6.13;;;11.30;71.20;;;;;;5056130;28;20815;-78
2022/03/02 10:27:34;;;;;;;7.77;5.53;;;11.40;71.40;;;;;;5055012;28;20344;-78
2022/03/02 10:30:06;;;;;;;10.68;6.63;;;11.40;69.00;;;;;;5052061;28;20439;-82
2022/03/02 10:32:43;;;;;;;10.20;6.37;;;11.30;68.80;;;;;;5053537;28;20210;-79
2022/03/02 10:35:14;;;;;;;9.40;6.20;;;11.30;69.60;;;;;;5051702;28;20186;-80
2022/03/02 10:37:56;;;;;;;9.80;6.20;;;11.20;69.70;;;;;;5049271;28;20832;-80
2022/03/02 10:40:25;;;;;;;10.93;5.93;;;11.20;69.60;;;;;;5052465;28;20198;-79
2022/03/02 10:42:57;;;;;;;10.13;5.00;;;11.20;69.70;;;;;;5051049;28;20202;-79
2022/03/02 10:45:27;;;;;;;13.10;6.80;;;11.20;70.40;;;;;;5049404;28;20587;-79
2022/03/02 10:48:02;;;;;;;11.67;6.60;;;11.10;69.70;;;;;;5054149;28;20218;-79
2022/03/02 10:50:54;;;;;;;11.63;6.27;;;11.10;69.90;;;;;;5051714;28;20983;-79
2022/03/02 10:53:26;;;;;;;10.13;6.50;;;11.10;70.20;;;;;;5039847;28;20202;-79
2022/03/02 10:55:59;;;;;;;10.00;5.57;;;11.10;70.30;;;;;;5051825;28;20281;-79
2022/03/02 10:58:30;;;;;;;8.53;5.37;;;11.10;70.40;;;;;;5051461;28;20282;-78
2022/03/02 11:01:00;;;;;;;9.30;5.47;;;11.00;70.60;;;;;;5046927;28;20670;-78
2022/03/02 11:03:36;;;;;;;8.50;5.10;;;11.00;70.30;;;;;;5034117;28;20641;-79
2022/03/02 11:06:11;;;;;;;9.70;5.43;;;10.80;69.30;;;;;;5006905;28;20198;-79
2022/03/02 11:09:03;;;;;;;10.10;5.93;;;10.70;69.60;;;;;;5050346;28;20683;-78
2022/03/02 11:11:39;;;;;;;10.27;6.10;;;10.60;70.10;;;;;;5050050;28;20721;-78
2022/03/02 11:14:18;;;;;;;8.13;5.57;;;10.60;70.10;;;;;;5053692;28;20205;-81
2022/03/02 11:16:51;;;;;;;8.87;5.00;;;10.50;70.90;;;;;;5051745;28;20201;-78
2022/03/02 11:19:50;;;;;;;7.67;4.23;;;10.40;70.70;;;;;;5051909;28;20194;-78
2022/03/02 11:22:23;;;;;;;7.80;3.73;;;10.30;70.10;;;;;;5049073;28;20555;-78
2022/03/02 11:24:58;;;;;;;8.17;3.80;;;10.20;69.50;;;;;;5049816;28;20200;-79
2022/03/02 11:27:36;;;;;;;6.23;3.57;;;10.10;68.80;;;;;;5050044;28;20229;-79
2022/03/02 11:30:09;;;;;;;7.50;4.10;;;10.10;68.90;;;;;;5050847;28;20194;-80
2022/03/02 11:32:40;;;;;;;7.23;4.00;;;10.00;69.10;;;;;;5051227;28;20186;-79
2022/03/02 11:35:10;;;;;;;9.67;4.80;;;9.90;69.60;;;;;;5048556;28;20656;-81
2022/03/02 11:37:39;;;;;;;7.97;4.53;;;9.90;70.30;;;;;;5047710;28;20190;-80
2022/03/02 11:40:10;;;;;;;7.13;4.53;;;9.80;71.50;;;;;;5053127;28;20210;-81
2022/03/02 11:42:40;;;;;;;7.23;4.20;;;9.80;72.90;;;;;;5051876;28;20194;-79
2022/03/02 11:45:12;;;;;;;9.33;4.67;;;9.80;73.30;;;;;;5051752;28;20202;-82
2022/03/02 11:47:47;;;;;;;9.15;5.40;;;9.80;73.70;;;;;;5047209;28;20443;-80
2022/03/02 11:50:15;;;;;;;7.77;5.03;;;9.70;74.40;;;;;;5041638;28;20730;-80
2022/03/02 11:52:46;;;;;;;8.93;4.93;;;9.80;74.40;;;;;;5031557;28;20218;-79
2022/03/02 11:55:16;;;;;;;7.70;4.80;;;9.80;74.50;;;;;;5030750;28;20199;-79
2022/03/02 11:57:53;;;;;;;7.87;4.87;;;9.90;74.50;;;;;;5030230;28;20203;-81
2022/03/02 12:00:25;;;;;;;9.13;4.90;;;9.90;74.30;;;;;;5029389;28;20294;-79
2022/03/02 12:02:56;;;;;;;7.17;4.47;;;9.90;74.30;;;;;;5032114;28;20268;-79
2022/03/02 12:05:27;;;;;;;8.73;5.30;;;9.90;74.00;;;;;;5031828;28;20190;-79
2022/03/02 12:08:04;;;;;;;8.43;5.13;;;9.90;74.30;;;;;;5031711;28;20210;-81
2022/03/02 12:10:35;;;;;;;7.47;4.57;;;10.00;74.40;;;;;;5030134;28;20202;-79
2022/03/02 12:13:04;;;;;;;9.57;5.43;;;10.10;73.90;;;;;;5031879;28;20198;-78
2022/03/02 12:15:47;;;;;;;7.03;4.77;;;10.20;73.70;;;;;;5029261;28;20191;-78
2022/03/02 12:18:17;;;;;;;10.33;5.10;;;10.30;75.10;;;;;;5032066;28;20183;-81
2022/03/02 12:20:47;;;;;;;10.10;5.47;;;10.40;75.00;;;;;;5032826;28;20206;-77
2022/03/02 12:23:21;;;;;;;11.43;5.20;;;10.50;74.70;;;;;;5028539;28;20223;-79
2022/03/02 12:25:50;;;;;;;9.63;5.07;;;10.60;74.80;;;;;;5030759;28;20191;-79
2022/03/02 12:28:20;;;;;;;9.77;5.47;;;10.60;74.10;;;;;;5030129;28;20353;-77
2022/03/02 12:30:50;;;;;;;10.80;5.77;;;10.70;74.30;;;;;;5032356;28;20198;-78
2022/03/02 12:33:19;;;;;;;6.77;4.93;;;10.80;74.50;;;;;;5032566;28;20211;-78
2022/03/02 12:35:47;;;;;;;11.50;5.20;;;10.90;73.00;;;;;;5029364;28;20195;-78
2022/03/02 12:38:16;;;;;;;11.37;6.03;;;11.00;71.90;;;;;;5030448;28;20257;-77
2022/03/02 12:40:46;;;;;;;10.70;5.50;;;11.10;71.60;;;;;;5033791;28;20202;-78
2022/03/02 12:43:16;;;;;;;9.00;5.27;;;11.20;72.60;;;;;;5027933;28;20195;-81
2022/03/02 12:45:55;;;;;;;9.47;5.23;;;11.40;73.20;;;;;;5029662;28;20203;-78
2022/03/02 12:48:25;;;;;;;8.20;4.70;;;11.50;71.90;;;;;;5030974;28;20218;-78
2022/03/02 12:51:27;;;;;;;8.20;4.67;;;11.50;71.80;;;;;;5030169;28;20631;-78
2022/03/02 12:53:56;;;;;;;7.87;4.70;;;11.60;72.00;;;;;;5036262;28;20276;-79
2022/03/02 12:56:27;;;;;;;9.33;4.23;;;11.70;71.50;;;;;;5035685;28;20191;-79
2022/03/02 12:58:56;;;;;;;9.97;4.20;;;11.80;71.50;;;;;;5034340;28;20677;-78